sensor_id;sensor_type;location;lat;lon;timestamp;temperature;humidity
36458;DHT22;22480;50.546;12.292;2023-06-14T00:01:45;11.00;99.90
36458;DHT22;22480;50.546;12.292;2023-06-14T00:04:12;11.00;99.90
36458;DHT22;22480;50.546;12.292;2023-06-14T00:06:39;11.00;99.90
36458;DHT22;22480;50.546;12.292;2023-06-14T00:09:05;11.00;99.90
36458;DHT22;22480;50.546;12.292;2023-06-14T00:11:33;10.90;99.90
36458;DHT22;22480;50.546;12.292;2023-06-14T00:13:59;10.90;99.90
36458;DHT22;22480;50.546;12.292;2023-06-14T00:16:25;10.90;99.90
36458;DHT22;22480;50.546;12.292;2023-06-14T00:18:51;10.90;99.90
36458;DHT22;22480;50.546;12.292;2023-06-14T00:21:17;10.90;99.90
36458;DHT22;22480;50.546;12.292;2023-06-14T00:23:43;10.90;99.90
36458;DHT22;22480;50.546;12.292;2023-06-14T00:26:09;10.90;99.90
36458;DHT22;22480;50.546;12.292;2023-06-14T00:28:35;11.00;99.90
36458;DHT22;22480;50.546;12.292;2023-06-14T00:31:01;10.90;99.90
36458;DHT22;22480;50.546;12.292;2023-06-14T00:33:27;10.90;99.90
36458;DHT22;22480;50.546;12.292;2023-06-14T00:35:53;10.80;99.90
36458;DHT22;22480;50.546;12.292;2023-06-14T00:38:20;10.70;99.90
36458;DHT22;22480;50.546;12.292;2023-06-14T00:40:46;10.50;99.90
36458;DHT22;22480;50.546;12.292;2023-06-14T00:43:13;10.30;99.90
36458;DHT22;22480;50.546;12.292;2023-06-14T00:45:38;10.10;99.90
36458;DHT22;22480;50.546;12.292;2023-06-14T00:48:05;10.00;99.90
36458;DHT22;22480;50.546;12.292;2023-06-14T00:50:32;9.90;99.90
36458;DHT22;22480;50.546;12.292;2023-06-14T00:53:02;9.80;99.90
36458;DHT22;22480;50.546;12.292;2023-06-14T00:55:28;9.60;99.90
36458;DHT22;22480;50.546;12.292;2023-06-14T00:57:55;9.60;99.90
36458;DHT22;22480;50.546;12.292;2023-06-14T01:00:21;9.50;99.90
36458;DHT22;22480;50.546;12.292;2023-06-14T01:02:47;9.40;99.90
36458;DHT22;22480;50.546;12.292;2023-06-14T01:05:15;9.40;99.90
36458;DHT22;22480;50.546;12.292;2023-06-14T01:09:03;9.30;99.90
36458;DHT22;22480;50.546;12.292;2023-06-14T01:11:10;9.30;99.90
36458;DHT22;22480;50.546;12.292;2023-06-14T01:13:39;9.30;99.90
36458;DHT22;22480;50.546;12.292;2023-06-14T01:16:08;9.40;99.90
36458;DHT22;22480;50.546;12.292;2023-06-14T01:18:40;9.30;99.90
36458;DHT22;22480;50.546;12.292;2023-06-14T01:21:25;9.20;99.90
36458;DHT22;22480;50.546;12.292;2023-06-14T01:23:52;9.20;99.90
36458;DHT22;22480;50.546;12.292;2023-06-14T01:26:22;9.10;99.90
36458;DHT22;22480;50.546;12.292;2023-06-14T01:28:50;9.10;99.90
36458;DHT22;22480;50.546;12.292;2023-06-14T01:31:20;8.90;99.90
36458;DHT22;22480;50.546;12.292;2023-06-14T01:33:52;8.80;99.90
36458;DHT22;22480;50.546;12.292;2023-06-14T01:36:22;8.80;99.90
36458;DHT22;22480;50.546;12.292;2023-06-14T01:38:50;8.80;99.90
36458;DHT22;22480;50.546;12.292;2023-06-14T01:41:21;8.70;99.90
36458;DHT22;22480;50.546;12.292;2023-06-14T01:43:47;8.60;99.90
36458;DHT22;22480;50.546;12.292;2023-06-14T01:46:14;8.50;99.90
36458;DHT22;22480;50.546;12.292;2023-06-14T01:48:41;8.40;99.90
36458;DHT22;22480;50.546;12.292;2023-06-14T01:51:07;8.30;99.90
36458;DHT22;22480;50.546;12.292;2023-06-14T01:53:32;8.20;99.90
36458;DHT22;22480;50.546;12.292;2023-06-14T01:55:58;8.10;99.90
36458;DHT22;22480;50.546;12.292;2023-06-14T01:58:24;8.10;99.90
36458;DHT22;22480;50.546;12.292;2023-06-14T02:00:50;8.10;99.90
36458;DHT22;22480;50.546;12.292;2023-06-14T02:03:16;8.00;99.90
36458;DHT22;22480;50.546;12.292;2023-06-14T02:05:42;8.10;99.90
36458;DHT22;22480;50.546;12.292;2023-06-14T02:08:08;8.10;99.90
36458;DHT22;22480;50.546;12.292;2023-06-14T02:10:34;8.10;99.90
36458;DHT22;22480;50.546;12.292;2023-06-14T02:13:00;8.30;99.90
36458;DHT22;22480;50.546;12.292;2023-06-14T02:15:26;8.30;99.90
36458;DHT22;22480;50.546;12.292;2023-06-14T02:18:01;8.30;99.90
36458;DHT22;22480;50.546;12.292;2023-06-14T02:20:27;8.20;99.90
36458;DHT22;22480;50.546;12.292;2023-06-14T02:22:53;8.20;99.90
36458;DHT22;22480;50.546;12.292;2023-06-14T02:25:19;8.10;99.90
36458;DHT22;22480;50.546;12.292;2023-06-14T02:27:45;8.00;99.90
36458;DHT22;22480;50.546;12.292;2023-06-14T02:30:11;7.90;99.90
36458;DHT22;22480;50.546;12.292;2023-06-14T02:32:37;7.70;99.90
36458;DHT22;22480;50.546;12.292;2023-06-14T02:35:04;7.60;99.90
36458;DHT22;22480;50.546;12.292;2023-06-14T02:37:30;7.50;99.90
36458;DHT22;22480;50.546;12.292;2023-06-14T02:39:56;7.50;99.90
36458;DHT22;22480;50.546;12.292;2023-06-14T02:42:23;7.50;99.90
36458;DHT22;22480;50.546;12.292;2023-06-14T02:44:48;7.60;99.90
36458;DHT22;22480;50.546;12.292;2023-06-14T02:47:17;7.70;99.90
36458;DHT22;22480;50.546;12.292;2023-06-14T02:49:43;7.70;99.90
36458;DHT22;22480;50.546;12.292;2023-06-14T02:52:09;7.70;99.90
36458;DHT22;22480;50.546;12.292;2023-06-14T02:54:35;7.60;99.90
36458;DHT22;22480;50.546;12.292;2023-06-14T02:57:02;7.50;99.90
36458;DHT22;22480;50.546;12.292;2023-06-14T02:59:27;7.30;99.90
36458;DHT22;22480;50.546;12.292;2023-06-14T03:01:55;7.20;99.90
36458;DHT22;22480;50.546;12.292;2023-06-14T03:04:21;7.00;99.90
36458;DHT22;22480;50.546;12.292;2023-06-14T03:06:47;7.10;99.90
36458;DHT22;22480;50.546;12.292;2023-06-14T03:09:17;7.20;99.90
36458;DHT22;22480;50.546;12.292;2023-06-14T03:11:43;7.10;99.90
36458;DHT22;22480;50.546;12.292;2023-06-14T03:14:10;7.00;99.90
36458;DHT22;22480;50.546;12.292;2023-06-14T03:16:37;7.00;99.90
36458;DHT22;22480;50.546;12.292;2023-06-14T03:19:04;6.90;99.90
36458;DHT22;22480;50.546;12.292;2023-06-14T03:21:31;6.90;99.90
36458;DHT22;22480;50.546;12.292;2023-06-14T03:24:00;6.80;99.90
36458;DHT22;22480;50.546;12.292;2023-06-14T03:26:26;6.80;99.90
36458;DHT22;22480;50.546;12.292;2023-06-14T03:28:54;6.90;99.90
36458;DHT22;22480;50.546;12.292;2023-06-14T03:31:21;6.90;99.90
36458;DHT22;22480;50.546;12.292;2023-06-14T03:33:47;6.90;99.90
36458;DHT22;22480;50.546;12.292;2023-06-14T03:36:14;7.00;99.90
36458;DHT22;22480;50.546;12.292;2023-06-14T03:38:40;7.10;99.90
36458;DHT22;22480;50.546;12.292;2023-06-14T03:41:06;7.20;99.90
36458;DHT22;22480;50.546;12.292;2023-06-14T03:43:32;7.30;99.90
36458;DHT22;22480;50.546;12.292;2023-06-14T03:45:59;7.40;99.90
36458;DHT22;22480;50.546;12.292;2023-06-14T03:48:26;7.40;99.90
36458;DHT22;22480;50.546;12.292;2023-06-14T03:50:52;7.60;99.90
36458;DHT22;22480;50.546;12.292;2023-06-14T03:53:20;7.60;99.90
36458;DHT22;22480;50.546;12.292;2023-06-14T03:55:50;7.60;99.90
36458;DHT22;22480;50.546;12.292;2023-06-14T03:58:19;7.70;99.90
36458;DHT22;22480;50.546;12.292;2023-06-14T04:00:45;7.80;99.90
36458;DHT22;22480;50.546;12.292;2023-06-14T04:03:11;7.90;99.90
36458;DHT22;22480;50.546;12.292;2023-06-14T04:05:39;8.10;99.90
36458;DHT22;22480;50.546;12.292;2023-06-14T04:08:10;8.10;99.90
36458;DHT22;22480;50.546;12.292;2023-06-14T04:10:40;8.10;99.90
36458;DHT22;22480;50.546;12.292;2023-06-14T04:13:05;8.20;99.90
36458;DHT22;22480;50.546;12.292;2023-06-14T04:15:32;8.10;99.90
36458;DHT22;22480;50.546;12.292;2023-06-14T04:18:00;8.10;99.90
36458;DHT22;22480;50.546;12.292;2023-06-14T04:20:26;8.20;99.90
36458;DHT22;22480;50.546;12.292;2023-06-14T04:22:52;8.30;99.90
36458;DHT22;22480;50.546;12.292;2023-06-14T04:25:18;8.70;99.90
36458;DHT22;22480;50.546;12.292;2023-06-14T04:27:44;9.60;99.90
36458;DHT22;22480;50.546;12.292;2023-06-14T04:30:11;10.30;99.90
36458;DHT22;22480;50.546;12.292;2023-06-14T04:32:42;11.00;99.90
36458;DHT22;22480;50.546;12.292;2023-06-14T04:35:10;11.40;99.90
36458;DHT22;22480;50.546;12.292;2023-06-14T04:37:38;11.60;99.90
36458;DHT22;22480;50.546;12.292;2023-06-14T04:40:07;11.50;99.90
36458;DHT22;22480;50.546;12.292;2023-06-14T04:42:35;11.30;99.90
36458;DHT22;22480;50.546;12.292;2023-06-14T04:45:04;11.20;99.90
36458;DHT22;22480;50.546;12.292;2023-06-14T04:47:30;11.40;99.90
36458;DHT22;22480;50.546;12.292;2023-06-14T04:49:57;11.80;99.90
36458;DHT22;22480;50.546;12.292;2023-06-14T04:52:23;12.30;99.90
36458;DHT22;22480;50.546;12.292;2023-06-14T04:54:53;13.10;99.90
36458;DHT22;22480;50.546;12.292;2023-06-14T04:57:21;13.80;99.90
36458;DHT22;22480;50.546;12.292;2023-06-14T04:59:49;14.50;99.90
36458;DHT22;22480;50.546;12.292;2023-06-14T05:02:21;15.30;99.90
36458;DHT22;22480;50.546;12.292;2023-06-14T05:04:47;15.50;99.90
36458;DHT22;22480;50.546;12.292;2023-06-14T05:07:13;15.70;99.90
36458;DHT22;22480;50.546;12.292;2023-06-14T05:09:40;16.30;99.90
36458;DHT22;22480;50.546;12.292;2023-06-14T05:12:06;16.10;99.90
36458;DHT22;22480;50.546;12.292;2023-06-14T05:14:35;16.20;99.90
36458;DHT22;22480;50.546;12.292;2023-06-14T05:17:01;16.50;99.90
36458;DHT22;22480;50.546;12.292;2023-06-14T05:19:28;16.10;99.90
36458;DHT22;22480;50.546;12.292;2023-06-14T05:21:54;16.20;99.90
36458;DHT22;22480;50.546;12.292;2023-06-14T05:24:20;16.50;99.90
36458;DHT22;22480;50.546;12.292;2023-06-14T05:26:46;16.30;99.90
36458;DHT22;22480;50.546;12.292;2023-06-14T05:29:12;16.50;99.90
36458;DHT22;22480;50.546;12.292;2023-06-14T05:31:38;16.30;99.90
36458;DHT22;22480;50.546;12.292;2023-06-14T05:34:04;15.90;99.90
36458;DHT22;22480;50.546;12.292;2023-06-14T05:36:30;15.90;99.90
36458;DHT22;22480;50.546;12.292;2023-06-14T05:38:55;15.70;99.90
36458;DHT22;22480;50.546;12.292;2023-06-14T05:41:26;15.50;99.90
36458;DHT22;22480;50.546;12.292;2023-06-14T05:43:53;15.90;99.90
36458;DHT22;22480;50.546;12.292;2023-06-14T05:46:20;16.50;99.90
36458;DHT22;22480;50.546;12.292;2023-06-14T05:48:51;17.10;99.90
36458;DHT22;22480;50.546;12.292;2023-06-14T05:51:17;17.00;99.90
36458;DHT22;22480;50.546;12.292;2023-06-14T05:53:46;16.70;99.90
36458;DHT22;22480;50.546;12.292;2023-06-14T05:56:13;16.70;99.90
36458;DHT22;22480;50.546;12.292;2023-06-14T05:58:39;16.90;99.90
36458;DHT22;22480;50.546;12.292;2023-06-14T06:01:05;16.60;99.90
36458;DHT22;22480;50.546;12.292;2023-06-14T06:03:30;16.60;99.90
36458;DHT22;22480;50.546;12.292;2023-06-14T06:05:56;16.60;99.90
36458;DHT22;22480;50.546;12.292;2023-06-14T06:08:22;16.60;99.90
36458;DHT22;22480;50.546;12.292;2023-06-14T06:10:47;16.40;99.90
36458;DHT22;22480;50.546;12.292;2023-06-14T06:13:13;16.20;99.90
36458;DHT22;22480;50.546;12.292;2023-06-14T06:15:39;16.60;99.90
36458;DHT22;22480;50.546;12.292;2023-06-14T06:18:05;17.10;99.90
36458;DHT22;22480;50.546;12.292;2023-06-14T06:20:30;17.50;99.90
36458;DHT22;22480;50.546;12.292;2023-06-14T06:22:58;17.50;99.90
36458;DHT22;22480;50.546;12.292;2023-06-14T06:25:25;17.90;99.90
36458;DHT22;22480;50.546;12.292;2023-06-14T06:27:52;17.60;99.90
36458;DHT22;22480;50.546;12.292;2023-06-14T06:30:19;17.50;99.90
36458;DHT22;22480;50.546;12.292;2023-06-14T06:32:45;17.60;99.90
36458;DHT22;22480;50.546;12.292;2023-06-14T06:35:11;17.40;99.90
36458;DHT22;22480;50.546;12.292;2023-06-14T06:37:39;17.70;99.90
36458;DHT22;22480;50.546;12.292;2023-06-14T06:40:05;18.10;99.90
36458;DHT22;22480;50.546;12.292;2023-06-14T06:42:35;17.90;99.40
36458;DHT22;22480;50.546;12.292;2023-06-14T06:45:04;17.70;99.90
36458;DHT22;22480;50.546;12.292;2023-06-14T06:47:29;17.50;99.90
36458;DHT22;22480;50.546;12.292;2023-06-14T06:49:55;17.60;99.90
36458;DHT22;22480;50.546;12.292;2023-06-14T06:52:21;17.40;99.90
36458;DHT22;22480;50.546;12.292;2023-06-14T06:54:46;17.30;99.90
36458;DHT22;22480;50.546;12.292;2023-06-14T06:57:12;17.60;99.90
36458;DHT22;22480;50.546;12.292;2023-06-14T06:59:38;17.70;99.90
36458;DHT22;22480;50.546;12.292;2023-06-14T07:02:04;17.70;98.60
36458;DHT22;22480;50.546;12.292;2023-06-14T07:04:30;17.90;99.80
36458;DHT22;22480;50.546;12.292;2023-06-14T07:06:56;17.80;99.90
36458;DHT22;22480;50.546;12.292;2023-06-14T07:09:22;17.90;99.90
36458;DHT22;22480;50.546;12.292;2023-06-14T07:11:49;18.00;98.80
36458;DHT22;22480;50.546;12.292;2023-06-14T07:14:15;18.00;98.40
36458;DHT22;22480;50.546;12.292;2023-06-14T07:16:40;18.10;99.40
36458;DHT22;22480;50.546;12.292;2023-06-14T07:19:06;18.20;98.10
36458;DHT22;22480;50.546;12.292;2023-06-14T07:21:32;18.30;94.00
36458;DHT22;22480;50.546;12.292;2023-06-14T07:23:58;18.20;94.90
36458;DHT22;22480;50.546;12.292;2023-06-14T07:26:24;18.10;95.30
36458;DHT22;22480;50.546;12.292;2023-06-14T07:28:50;18.10;93.90
36458;DHT22;22480;50.546;12.292;2023-06-14T07:31:16;18.10;96.80
36458;DHT22;22480;50.546;12.292;2023-06-14T07:33:43;18.10;93.30
36458;DHT22;22480;50.546;12.292;2023-06-14T07:36:09;18.10;91.20
36458;DHT22;22480;50.546;12.292;2023-06-14T07:38:35;18.40;91.60
36458;DHT22;22480;50.546;12.292;2023-06-14T07:41:02;18.60;91.00
36458;DHT22;22480;50.546;12.292;2023-06-14T07:43:27;18.80;86.40
36458;DHT22;22480;50.546;12.292;2023-06-14T07:45:53;19.20;92.00
36458;DHT22;22480;50.546;12.292;2023-06-14T07:48:19;19.30;91.90
36458;DHT22;22480;50.546;12.292;2023-06-14T07:50:45;19.10;85.60
36458;DHT22;22480;50.546;12.292;2023-06-14T07:53:11;19.30;92.20
36458;DHT22;22480;50.546;12.292;2023-06-14T07:55:36;19.30;94.70
36458;DHT22;22480;50.546;12.292;2023-06-14T07:58:09;19.40;96.20
36458;DHT22;22480;50.546;12.292;2023-06-14T08:00:34;19.60;91.90
36458;DHT22;22480;50.546;12.292;2023-06-14T08:03:00;19.70;89.90
36458;DHT22;22480;50.546;12.292;2023-06-14T08:05:27;19.50;91.80
36458;DHT22;22480;50.546;12.292;2023-06-14T08:07:53;19.10;91.30
36458;DHT22;22480;50.546;12.292;2023-06-14T08:10:20;19.10;95.80
36458;DHT22;22480;50.546;12.292;2023-06-14T08:12:46;19.00;94.20
36458;DHT22;22480;50.546;12.292;2023-06-14T08:15:12;19.40;95.60
36458;DHT22;22480;50.546;12.292;2023-06-14T08:17:37;19.30;90.50
36458;DHT22;22480;50.546;12.292;2023-06-14T08:20:03;19.30;88.00
36458;DHT22;22480;50.546;12.292;2023-06-14T08:22:30;19.30;90.60
36458;DHT22;22480;50.546;12.292;2023-06-14T08:24:59;19.30;89.90
36458;DHT22;22480;50.546;12.292;2023-06-14T08:27:26;19.40;89.50
36458;DHT22;22480;50.546;12.292;2023-06-14T08:29:52;19.70;90.00
36458;DHT22;22480;50.546;12.292;2023-06-14T08:32:18;19.90;84.50
36458;DHT22;22480;50.546;12.292;2023-06-14T08:34:43;19.70;84.80
36458;DHT22;22480;50.546;12.292;2023-06-14T08:37:09;19.60;84.00
36458;DHT22;22480;50.546;12.292;2023-06-14T08:39:35;19.60;84.70
36458;DHT22;22480;50.546;12.292;2023-06-14T08:42:02;19.80;84.10
36458;DHT22;22480;50.546;12.292;2023-06-14T08:44:29;19.70;80.50
36458;DHT22;22480;50.546;12.292;2023-06-14T08:46:59;19.90;82.10
36458;DHT22;22480;50.546;12.292;2023-06-14T08:49:25;19.90;79.00
36458;DHT22;22480;50.546;12.292;2023-06-14T08:51:59;19.90;77.30
36458;DHT22;22480;50.546;12.292;2023-06-14T08:54:28;20.10;72.90
36458;DHT22;22480;50.546;12.292;2023-06-14T08:56:58;20.40;74.50
36458;DHT22;22480;50.546;12.292;2023-06-14T08:59:26;20.70;77.80
36458;DHT22;22480;50.546;12.292;2023-06-14T09:01:53;21.00;68.40
36458;DHT22;22480;50.546;12.292;2023-06-14T09:04:20;21.40;67.70
36458;DHT22;22480;50.546;12.292;2023-06-14T09:06:47;21.50;69.10
36458;DHT22;22480;50.546;12.292;2023-06-14T09:09:22;21.40;65.30
36458;DHT22;22480;50.546;12.292;2023-06-14T09:11:54;21.20;67.00
36458;DHT22;22480;50.546;12.292;2023-06-14T09:14:24;21.00;69.30
36458;DHT22;22480;50.546;12.292;2023-06-14T09:16:54;21.30;66.60
36458;DHT22;22480;50.546;12.292;2023-06-14T09:19:24;21.60;66.20
36458;DHT22;22480;50.546;12.292;2023-06-14T09:21:50;21.60;65.30
36458;DHT22;22480;50.546;12.292;2023-06-14T09:24:18;21.60;65.30
36458;DHT22;22480;50.546;12.292;2023-06-14T09:26:47;21.50;65.40
36458;DHT22;22480;50.546;12.292;2023-06-14T09:29:13;21.80;66.20
36458;DHT22;22480;50.546;12.292;2023-06-14T09:31:39;21.90;64.20
36458;DHT22;22480;50.546;12.292;2023-06-14T09:34:05;21.60;63.60
36458;DHT22;22480;50.546;12.292;2023-06-14T09:36:32;21.60;64.20
36458;DHT22;22480;50.546;12.292;2023-06-14T09:38:59;21.60;63.40
36458;DHT22;22480;50.546;12.292;2023-06-14T09:41:39;21.60;61.50
36458;DHT22;22480;50.546;12.292;2023-06-14T09:44:07;21.90;64.50
36458;DHT22;22480;50.546;12.292;2023-06-14T09:46:34;22.30;64.80
36458;DHT22;22480;50.546;12.292;2023-06-14T09:49:01;22.60;60.10
36458;DHT22;22480;50.546;12.292;2023-06-14T09:51:28;22.90;62.70
36458;DHT22;22480;50.546;12.292;2023-06-14T09:54:02;23.30;58.40
36458;DHT22;22480;50.546;12.292;2023-06-14T09:58:57;23.90;59.40
36458;DHT22;22480;50.546;12.292;2023-06-14T10:01:30;23.50;59.60
36458;DHT22;22480;50.546;12.292;2023-06-14T10:04:02;22.70;60.30
36458;DHT22;22480;50.546;12.292;2023-06-14T10:06:29;22.20;61.60
36458;DHT22;22480;50.546;12.292;2023-06-14T10:08:57;22.40;61.80
36458;DHT22;22480;50.546;12.292;2023-06-14T10:11:26;22.50;60.90
36458;DHT22;22480;50.546;12.292;2023-06-14T10:13:52;22.80;60.60
36458;DHT22;22480;50.546;12.292;2023-06-14T10:16:25;23.10;59.80
36458;DHT22;22480;50.546;12.292;2023-06-14T10:19:04;23.10;60.80
36458;DHT22;22480;50.546;12.292;2023-06-14T10:21:51;22.60;59.20
36458;DHT22;22480;50.546;12.292;2023-06-14T10:24:33;22.20;61.80
36458;DHT22;22480;50.546;12.292;2023-06-14T10:26:59;22.40;60.50
36458;DHT22;22480;50.546;12.292;2023-06-14T10:29:27;22.70;59.10
36458;DHT22;22480;50.546;12.292;2023-06-14T10:31:58;23.20;60.70
36458;DHT22;22480;50.546;12.292;2023-06-14T10:34:29;23.90;56.90
36458;DHT22;22480;50.546;12.292;2023-06-14T10:37:06;24.60;57.00
36458;DHT22;22480;50.546;12.292;2023-06-14T10:39:41;24.60;55.70
36458;DHT22;22480;50.546;12.292;2023-06-14T10:42:07;25.60;55.90
36458;DHT22;22480;50.546;12.292;2023-06-14T10:50:09;25.40;52.80
36458;DHT22;22480;50.546;12.292;2023-06-14T10:52:39;25.30;53.60
36458;DHT22;22480;50.546;12.292;2023-06-14T10:55:15;25.20;54.00
36458;DHT22;22480;50.546;12.292;2023-06-14T10:57:47;25.40;51.90
36458;DHT22;22480;50.546;12.292;2023-06-14T11:00:16;25.80;52.00
36458;DHT22;22480;50.546;12.292;2023-06-14T11:05:51;25.40;51.60
36458;DHT22;22480;50.546;12.292;2023-06-14T11:11:07;25.00;51.20
36458;DHT22;22480;50.546;12.292;2023-06-14T11:13:33;25.10;51.40
36458;DHT22;22480;50.546;12.292;2023-06-14T11:15:59;25.50;52.00
36458;DHT22;22480;50.546;12.292;2023-06-14T11:18:24;25.80;48.10
36458;DHT22;22480;50.546;12.292;2023-06-14T11:20:50;26.40;49.60
36458;DHT22;22480;50.546;12.292;2023-06-14T11:23:16;26.50;49.50
36458;DHT22;22480;50.546;12.292;2023-06-14T11:25:42;26.70;47.60
36458;DHT22;22480;50.546;12.292;2023-06-14T11:28:08;26.60;49.80
36458;DHT22;22480;50.546;12.292;2023-06-14T11:30:33;26.40;49.50
36458;DHT22;22480;50.546;12.292;2023-06-14T11:32:59;26.10;47.90
36458;DHT22;22480;50.546;12.292;2023-06-14T11:35:26;25.50;48.20
36458;DHT22;22480;50.546;12.292;2023-06-14T11:37:55;25.60;49.70
36458;DHT22;22480;50.546;12.292;2023-06-14T11:40:26;26.30;49.00
36458;DHT22;22480;50.546;12.292;2023-06-14T11:43:01;26.50;48.10
36458;DHT22;22480;50.546;12.292;2023-06-14T11:45:28;26.70;47.80
36458;DHT22;22480;50.546;12.292;2023-06-14T11:47:55;27.30;47.00
36458;DHT22;22480;50.546;12.292;2023-06-14T11:50:22;26.60;48.00
36458;DHT22;22480;50.546;12.292;2023-06-14T11:52:58;25.90;49.60
36458;DHT22;22480;50.546;12.292;2023-06-14T11:55:38;24.70;50.60
36458;DHT22;22480;50.546;12.292;2023-06-14T11:58:06;23.60;52.40
36458;DHT22;22480;50.546;12.292;2023-06-14T12:00:32;22.90;53.60
36458;DHT22;22480;50.546;12.292;2023-06-14T12:02:58;22.90;54.80
36458;DHT22;22480;50.546;12.292;2023-06-14T12:05:25;23.10;54.50
36458;DHT22;22480;50.546;12.292;2023-06-14T12:08:02;23.30;56.60
36458;DHT22;22480;50.546;12.292;2023-06-14T12:10:28;23.70;54.00
36458;DHT22;22480;50.546;12.292;2023-06-14T12:12:58;24.80;53.60
36458;DHT22;22480;50.546;12.292;2023-06-14T12:15:24;24.30;53.50
36458;DHT22;22480;50.546;12.292;2023-06-14T12:17:54;23.80;54.60
36458;DHT22;22480;50.546;12.292;2023-06-14T12:20:20;23.20;54.40
36458;DHT22;22480;50.546;12.292;2023-06-14T12:25:33;23.80;55.90
36458;DHT22;22480;50.546;12.292;2023-06-14T12:28:06;23.50;56.20
36458;DHT22;22480;50.546;12.292;2023-06-14T12:30:33;22.60;54.80
36458;DHT22;22480;50.546;12.292;2023-06-14T12:32:59;22.20;57.30
36458;DHT22;22480;50.546;12.292;2023-06-14T12:35:26;22.10;57.40
36458;DHT22;22480;50.546;12.292;2023-06-14T12:37:51;22.10;56.60
36458;DHT22;22480;50.546;12.292;2023-06-14T12:40:17;21.60;56.80
36458;DHT22;22480;50.546;12.292;2023-06-14T12:42:45;21.40;57.60
36458;DHT22;22480;50.546;12.292;2023-06-14T12:45:12;21.00;58.80
36458;DHT22;22480;50.546;12.292;2023-06-14T12:47:38;21.50;59.80
36458;DHT22;22480;50.546;12.292;2023-06-14T12:50:05;22.10;56.80
36458;DHT22;22480;50.546;12.292;2023-06-14T12:52:31;22.20;56.00
36458;DHT22;22480;50.546;12.292;2023-06-14T12:54:57;22.00;57.60
36458;DHT22;22480;50.546;12.292;2023-06-14T12:57:23;23.10;56.70
36458;DHT22;22480;50.546;12.292;2023-06-14T12:59:49;24.40;53.70
36458;DHT22;22480;50.546;12.292;2023-06-14T13:02:19;25.20;51.60
36458;DHT22;22480;50.546;12.292;2023-06-14T13:04:46;25.00;51.90
36458;DHT22;22480;50.546;12.292;2023-06-14T13:07:11;24.10;52.40
36458;DHT22;22480;50.546;12.292;2023-06-14T13:09:37;23.80;53.60
36458;DHT22;22480;50.546;12.292;2023-06-14T13:12:03;25.10;53.10
36458;DHT22;22480;50.546;12.292;2023-06-14T13:14:29;26.60;51.60
36458;DHT22;22480;50.546;12.292;2023-06-14T13:16:55;27.40;47.80
36458;DHT22;22480;50.546;12.292;2023-06-14T13:19:21;28.10;47.20
36458;DHT22;22480;50.546;12.292;2023-06-14T13:21:47;27.80;47.30
36458;DHT22;22480;50.546;12.292;2023-06-14T13:24:13;27.80;46.20
36458;DHT22;22480;50.546;12.292;2023-06-14T13:26:39;27.90;46.30
36458;DHT22;22480;50.546;12.292;2023-06-14T13:29:04;28.10;46.50
36458;DHT22;22480;50.546;12.292;2023-06-14T13:31:30;28.40;46.60
36458;DHT22;22480;50.546;12.292;2023-06-14T13:33:56;28.00;45.90
36458;DHT22;22480;50.546;12.292;2023-06-14T13:36:22;28.30;46.30
36458;DHT22;22480;50.546;12.292;2023-06-14T13:38:47;29.10;45.30
36458;DHT22;22480;50.546;12.292;2023-06-14T13:41:13;29.70;43.90
36458;DHT22;22480;50.546;12.292;2023-06-14T13:43:39;29.00;43.60
36458;DHT22;22480;50.546;12.292;2023-06-14T13:46:04;28.50;45.10
36458;DHT22;22480;50.546;12.292;2023-06-14T13:48:30;27.50;45.80
36458;DHT22;22480;50.546;12.292;2023-06-14T13:50:56;26.20;48.00
36458;DHT22;22480;50.546;12.292;2023-06-14T13:53:22;24.70;49.20
36458;DHT22;22480;50.546;12.292;2023-06-14T13:55:48;24.10;50.10
36458;DHT22;22480;50.546;12.292;2023-06-14T13:58:14;23.70;51.10
36458;DHT22;22480;50.546;12.292;2023-06-14T14:00:40;23.90;52.50
36458;DHT22;22480;50.546;12.292;2023-06-14T14:03:06;24.50;50.20
36458;DHT22;22480;50.546;12.292;2023-06-14T14:05:32;25.40;48.90
36458;DHT22;22480;50.546;12.292;2023-06-14T14:07:58;26.80;48.20
36458;DHT22;22480;50.546;12.292;2023-06-14T14:10:26;27.60;47.40
36458;DHT22;22480;50.546;12.292;2023-06-14T14:12:52;27.40;47.10
36458;DHT22;22480;50.546;12.292;2023-06-14T14:15:19;26.60;48.00
36458;DHT22;22480;50.546;12.292;2023-06-14T14:17:45;26.40;47.20
36458;DHT22;22480;50.546;12.292;2023-06-14T14:20:11;26.30;47.10
36458;DHT22;22480;50.546;12.292;2023-06-14T14:22:43;25.30;47.50
36458;DHT22;22480;50.546;12.292;2023-06-14T14:25:09;24.90;49.20
36458;DHT22;22480;50.546;12.292;2023-06-14T14:27:36;25.50;50.30
36458;DHT22;22480;50.546;12.292;2023-06-14T14:30:03;26.80;47.80
36458;DHT22;22480;50.546;12.292;2023-06-14T14:32:29;27.00;47.70
36458;DHT22;22480;50.546;12.292;2023-06-14T14:34:55;27.40;48.50
36458;DHT22;22480;50.546;12.292;2023-06-14T14:37:20;27.10;47.40
36458;DHT22;22480;50.546;12.292;2023-06-14T14:39:46;26.40;48.00
36458;DHT22;22480;50.546;12.292;2023-06-14T14:42:12;25.50;50.50
36458;DHT22;22480;50.546;12.292;2023-06-14T14:44:38;24.80;51.80
36458;DHT22;22480;50.546;12.292;2023-06-14T14:47:05;25.50;52.10
36458;DHT22;22480;50.546;12.292;2023-06-14T14:49:31;26.20;50.40
36458;DHT22;22480;50.546;12.292;2023-06-14T14:51:57;26.80;49.70
36458;DHT22;22480;50.546;12.292;2023-06-14T14:54:23;26.90;49.40
36458;DHT22;22480;50.546;12.292;2023-06-14T14:56:51;27.30;49.20
36458;DHT22;22480;50.546;12.292;2023-06-14T14:59:16;26.50;47.80
36458;DHT22;22480;50.546;12.292;2023-06-14T15:01:42;27.30;48.60
36458;DHT22;22480;50.546;12.292;2023-06-14T15:04:08;27.70;46.50
36458;DHT22;22480;50.546;12.292;2023-06-14T15:06:34;27.30;46.30
36458;DHT22;22480;50.546;12.292;2023-06-14T15:09:04;27.80;46.60
36458;DHT22;22480;50.546;12.292;2023-06-14T15:11:30;27.70;46.10
36458;DHT22;22480;50.546;12.292;2023-06-14T15:13:55;27.90;46.90
36458;DHT22;22480;50.546;12.292;2023-06-14T15:16:21;28.30;46.30
36458;DHT22;22480;50.546;12.292;2023-06-14T15:18:47;28.60;45.30
36458;DHT22;22480;50.546;12.292;2023-06-14T15:21:13;28.30;45.20
36458;DHT22;22480;50.546;12.292;2023-06-14T15:23:38;28.50;45.00
36458;DHT22;22480;50.546;12.292;2023-06-14T15:26:04;28.50;45.00
36458;DHT22;22480;50.546;12.292;2023-06-14T15:28:30;28.40;45.80
36458;DHT22;22480;50.546;12.292;2023-06-14T15:30:59;28.40;46.10
36458;DHT22;22480;50.546;12.292;2023-06-14T15:33:25;28.20;45.70
36458;DHT22;22480;50.546;12.292;2023-06-14T15:35:51;27.60;46.50
36458;DHT22;22480;50.546;12.292;2023-06-14T15:38:17;28.00;48.00